Spokane, WA (99216)

8:11 PM PDT on August 01, 2015 (GMT -0700)
Broadway Ave | | Change Station
CLOSE
Current Station
Personal Weather Station
Location: Veradale, WA
Elevation: 2057 ft
Nearby Weather Stations

Elev 2057 ft 47.66 °N, 117.19 °W | Updated 1 second ago

Partly Cloudy
Partly Cloudy
82.9 °F
Feels Like 80 °F
N
0.0
Wind Variable Wind from West
Gusts 0.0 mph

Today
High -- | Low -- °F
--% Chance of Precip.
Yesterday
High -- | Low -- °F
Precip. -- in
5:25 AM 8:23 PM
Waning Gibbous, 96% visible
Pressure 29.80 in
Visibility 9.0 miles
Clouds Scattered Clouds 12000 ft
Heat Index 80 °F
Dew Point 25 °F
Humidity 12%
Rainfall 0.00 in
Snow Depth Not available.
UV 0.0 out of 12
Pollen 6.70 out of 12
Air Quality Not available.
Flu Activity Not available.
METAR KSFF 020253Z VRB04KT 9SM SCT120 31/M01 A2985 RMK AO2 SLP089 T03111011 55003

More Conditions Fewer Conditions

Pressure 29.80 in
Visibility 9.0 miles
Clouds Scattered Clouds 12000 ft
Heat Index 80 °F
Dew Point 25 °F
Humidity 12%
Rainfall 0.00 in
Snow Depth Not available.
UV 0.0 out of 12
Pollen 6.70 out of 12
Air Quality Not available.
Flu Activity Not available.
METAR KSFF 020253Z VRB04KT 9SM SCT120 31/M01 A2985 RMK AO2 SLP089 T03111011 55003

More Conditions Fewer Conditions

10-Day Weather Forecast

×

Almanac

Astronomy

Aug. 01, 2015 Rise Set
Actual Time
Civil Twilight
Nautical Twilight
Astronomical Twilight
Moon
Length of Visible Light
Length of Day
Tomorrow will be .
, % of the Moon is Illuminated

Today's Extremes

State Highs State Lows

Community

WunderPhotos

Upload Photos

1,843,152 photos uploaded!

WunderBlogs® & News

Nearby

Air Quality

  Air Quality AQ Index Pollutant
Not available.

Snow Depth

Station Depth Elevation

Earthquake Activity

City Distance Mag. Time & Date
Minimum magnitude displayed is 2.5.

Coastal Water Temperatures

Place Temperature

Stations

Nearby Weather Stations

Station Location Temp. Windchill Dew Point Humidity Wind Precip. Elev Updated Type